Time;durP1;ratioP1;P1;durP2;ratioP2;P2;SDS_P1;SDS_P2;PMS_P1;PMS_P2;Temp;Humidity;BMP_temperature;BMP_pressure;BME280_temperature;BME280_humidity;BME280_pressure;Samples;Min_cycle;Max_cycle;Signal;HPM_P1;HPM_P2
2022/09/08 00:00:06;;;;;;;3.67;1.10;;;20.40;68.70;;;;;;5073635;28;20056;-61
2022/09/08 00:02:35;;;;;;;3.25;1.30;;;20.40;69.00;;;;;;5072092;28;20024;-61
2022/09/08 00:05:00;;;;;;;5.35;1.67;;;20.40;69.30;;;;;;5068046;28;20033;-62
2022/09/08 00:07:26;;;;;;;5.05;1.20;;;20.40;68.90;;;;;;5081482;28;20040;-62
2022/09/08 00:09:52;;;;;;;1.83;1.08;;;20.40;68.70;;;;;;5082534;28;20046;-62
2022/09/08 00:12:18;;;;;;;7.55;1.33;;;20.40;68.90;;;;;;5079459;28;20044;-62
2022/09/08 00:14:45;;;;;;;4.78;1.38;;;20.40;69.10;;;;;;5078243;28;20032;-61
2022/09/08 00:17:11;;;;;;;3.97;1.20;;;20.40;69.00;;;;;;5084727;28;20025;-61
2022/09/08 00:19:36;;;;;;;5.50;1.25;;;20.40;68.90;;;;;;5084242;28;20032;-61
2022/09/08 00:22:02;;;;;;;3.20;1.20;;;20.40;69.20;;;;;;5073437;28;20041;-61
2022/09/08 00:24:28;;;;;;;2.97;1.23;;;20.40;69.30;;;;;;5082116;28;20025;-62
2022/09/08 00:26:53;;;;;;;3.20;1.15;;;20.40;69.30;;;;;;5075081;28;20028;-61
2022/09/08 00:29:19;;;;;;;2.75;1.08;;;20.40;69.10;;;;;;5083085;28;20029;-62
2022/09/08 00:31:45;;;;;;;4.20;1.20;;;20.40;69.30;;;;;;5085708;28;20037;-62
2022/09/08 00:34:11;;;;;;;4.13;1.13;;;20.40;69.40;;;;;;5076414;28;20051;-61
2022/09/08 00:36:37;;;;;;;4.88;1.77;;;20.40;69.60;;;;;;5070951;28;20033;-62
2022/09/08 00:39:03;;;;;;;2.35;1.25;;;20.40;69.40;;;;;;5070734;28;20092;-62
2022/09/08 00:41:29;;;;;;;5.70;1.38;;;20.40;69.50;;;;;;5071381;28;20024;-61
2022/09/08 00:44:00;;;;;;;3.22;1.50;;;20.40;69.50;;;;;;5070842;28;20029;-61
2022/09/08 00:46:39;;;;;;;2.70;1.38;;;20.30;69.60;;;;;;5071709;28;20035;-61
2022/09/08 00:49:34;;;;;;;4.03;1.92;;;20.30;70.20;;;;;;5080351;28;20035;-62
2022/09/08 00:52:00;;;;;;;2.22;1.30;;;20.30;70.40;;;;;;5077348;28;20073;-61
2022/09/08 00:54:26;;;;;;;2.65;1.30;;;20.30;69.30;;;;;;5076194;28;20045;-62
2022/09/08 00:56:54;;;;;;;6.55;1.70;;;20.30;69.50;;;;;;5087707;28;20025;-60
2022/09/08 00:59:22;;;;;;;3.60;1.42;;;20.30;69.60;;;;;;5081394;28;20025;-62
2022/09/08 01:01:48;;;;;;;1.90;1.23;;;20.30;69.70;;;;;;5068541;28;20013;-61
2022/09/08 01:04:14;;;;;;;5.22;1.38;;;20.30;69.90;;;;;;5078566;28;20024;-61
2022/09/08 01:12:45;;;;;;;3.42;1.30;;;20.30;69.90;;;;;;5069395;28;20070;-62
2022/09/08 01:15:31;;;;;;;2.30;1.27;;;20.40;69.70;;;;;;5080705;28;20052;-61
2022/09/08 01:17:58;;;;;;;4.72;1.30;;;20.30;70.80;;;;;;5072009;28;20051;-62
2022/09/08 01:20:39;;;;;;;1.98;1.27;;;20.40;69.90;;;;;;5079412;28;20047;-62
2022/09/08 01:23:33;;;;;;;2.08;1.13;;;20.30;70.80;;;;;;5067049;28;20029;-61
2022/09/08 01:26:06;;;;;;;2.45;1.42;;;20.30;70.90;;;;;;5074825;28;20175;-61
2022/09/08 01:28:38;;;;;;;2.85;1.38;;;20.40;69.70;;;;;;5079764;28;20024;-61
2022/09/08 01:31:05;;;;;;;1.52;1.20;;;20.30;69.60;;;;;;5079074;28;20040;-61
2022/09/08 01:33:31;;;;;;;2.78;1.00;;;20.30;69.60;;;;;;5067820;28;20051;-62
2022/09/08 01:35:57;;;;;;;1.88;1.10;;;20.30;69.60;;;;;;5081580;28;20037;-62
2022/09/08 01:38:23;;;;;;;1.70;1.02;;;20.30;69.60;;;;;;5077492;28;20030;-62
2022/09/08 01:40:49;;;;;;;2.10;1.20;;;20.30;69.50;;;;;;5077682;28;20333;-63
2022/09/08 01:43:14;;;;;;;3.90;1.23;;;20.20;69.50;;;;;;5076826;28;20035;-63
2022/09/08 01:45:40;;;;;;;3.08;1.23;;;20.20;69.30;;;;;;5079431;28;20033;-62
2022/09/08 01:48:07;;;;;;;5.60;1.20;;;20.20;69.30;;;;;;5069681;28;20032;-62
2022/09/08 01:50:41;;;;;;;2.20;1.23;;;20.20;69.50;;;;;;5082720;28;20032;-62
2022/09/08 01:53:09;;;;;;;5.75;1.60;;;20.10;69.60;;;;;;5071533;28;20037;-61
2022/09/08 01:55:35;;;;;;;2.50;1.30;;;20.10;69.70;;;;;;5099812;28;20047;-62
2022/09/08 01:58:00;;;;;;;2.50;1.40;;;20.10;69.80;;;;;;5087474;28;20033;-63
2022/09/08 02:00:26;;;;;;;5.43;1.33;;;20.10;70.00;;;;;;5074288;28;20032;-64
2022/09/08 02:02:52;;;;;;;1.40;1.20;;;20.10;70.10;;;;;;5074797;28;20017;-62
2022/09/08 02:05:17;;;;;;;2.90;1.55;;;20.00;70.10;;;;;;5078793;28;20024;-61
2022/09/08 02:07:43;;;;;;;3.08;1.75;;;20.00;70.00;;;;;;5082609;28;20064;-62
2022/09/08 02:10:09;;;;;;;2.78;1.40;;;20.00;70.00;;;;;;5082417;28;20029;-61
2022/09/08 02:12:35;;;;;;;5.20;1.63;;;20.00;70.10;;;;;;5079957;28;20483;-62
2022/09/08 02:15:00;;;;;;;3.47;1.75;;;19.90;70.00;;;;;;5077194;28;20071;-63
2022/09/08 02:17:29;;;;;;;2.30;1.45;;;19.90;70.20;;;;;;5074135;28;20036;-61
2022/09/08 02:19:55;;;;;;;2.55;1.27;;;19.90;70.40;;;;;;5067848;28;20390;-61
2022/09/08 02:22:22;;;;;;;2.70;1.58;;;19.90;70.30;;;;;;5072140;28;20520;-62
2022/09/08 02:24:47;;;;;;;2.08;1.10;;;19.90;70.30;;;;;;5064260;28;20028;-63
2022/09/08 02:27:13;;;;;;;1.48;1.00;;;19.90;70.30;;;;;;5072044;28;20036;-61
2022/09/08 02:29:39;;;;;;;2.25;1.13;;;19.90;70.10;;;;;;5085250;28;20024;-62
2022/09/08 02:32:04;;;;;;;2.72;1.13;;;19.90;70.10;;;;;;5073240;28;20131;-62
2022/09/08 02:34:30;;;;;;;1.50;1.00;;;19.90;70.10;;;;;;5066669;28;20044;-61
2022/09/08 02:36:56;;;;;;;1.60;1.00;;;19.90;70.30;;;;;;5067772;28;20039;-62
2022/09/08 02:39:23;;;;;;;2.05;0.95;;;19.90;70.70;;;;;;5067407;28;20032;-62
2022/09/08 02:41:48;;;;;;;4.47;1.00;;;19.80;70.70;;;;;;5080270;28;20093;-63
2022/09/08 02:44:14;;;;;;;1.63;1.00;;;19.80;70.70;;;;;;5075831;28;20037;-62
2022/09/08 02:46:41;;;;;;;1.35;0.93;;;19.90;70.90;;;;;;5080035;28;20078;-64
2022/09/08 02:49:10;;;;;;;5.35;1.00;;;19.90;70.90;;;;;;5084285;28;20021;-62
2022/09/08 02:51:36;;;;;;;3.45;1.10;;;19.90;70.90;;;;;;5078922;28;20028;-61
2022/09/08 02:54:02;;;;;;;4.68;1.00;;;19.90;70.80;;;;;;5093437;28;20082;-62
2022/09/08 02:56:28;;;;;;;3.80;0.98;;;19.90;70.90;;;;;;5081182;28;20033;-61
2022/09/08 02:58:54;;;;;;;1.77;1.20;;;19.90;70.90;;;;;;5092497;28;20032;-62
2022/09/08 03:01:20;;;;;;;3.75;1.05;;;19.90;70.90;;;;;;5085993;28;20478;-62
2022/09/08 03:03:46;;;;;;;1.45;1.02;;;19.90;71.10;;;;;;5091294;28;20017;-63
2022/09/08 03:06:12;;;;;;;1.20;0.80;;;19.90;71.10;;;;;;5093670;28;20627;-63
2022/09/08 03:08:37;;;;;;;3.92;1.05;;;19.90;71.10;;;;;;5090640;28;20028;-62
2022/09/08 03:11:04;;;;;;;1.85;0.88;;;19.90;71.30;;;;;;5095791;28;20021;-61
2022/09/08 03:13:30;;;;;;;1.00;0.90;;;19.90;71.30;;;;;;5074345;28;20557;-62
2022/09/08 03:15:55;;;;;;;2.60;1.13;;;19.90;71.20;;;;;;5080888;28;20036;-62
2022/09/08 03:18:22;;;;;;;1.60;1.00;;;19.90;71.20;;;;;;5094441;28;20039;-62
2022/09/08 03:20:59;;;;;;;4.20;1.10;;;19.90;71.20;;;;;;5083902;28;20040;-63
2022/09/08 03:23:25;;;;;;;1.52;0.85;;;19.90;72.00;;;;;;5072790;28;20035;-62
2022/09/08 03:25:51;;;;;;;2.83;0.90;;;19.90;71.30;;;;;;5074495;28;20074;-63
2022/09/08 03:28:24;;;;;;;1.23;0.77;;;19.90;71.20;;;;;;5091833;28;20044;-63
2022/09/08 03:30:50;;;;;;;1.37;0.90;;;19.80;71.60;;;;;;5081298;28;20070;-62
2022/09/08 03:33:16;;;;;;;1.15;0.95;;;19.90;71.30;;;;;;5080327;28;20028;-62
2022/09/08 03:35:42;;;;;;;3.97;1.30;;;19.90;71.30;;;;;;5084612;28;20039;-62
2022/09/08 03:38:08;;;;;;;3.28;1.00;;;19.90;71.30;;;;;;5095999;28;20013;-63
2022/09/08 03:40:34;;;;;;;1.33;0.80;;;19.90;71.30;;;;;;5096148;28;20027;-62
2022/09/08 03:43:00;;;;;;;1.90;0.90;;;19.80;71.20;;;;;;5087160;28;20097;-63
2022/09/08 03:45:26;;;;;;;4.30;0.93;;;19.80;71.20;;;;;;5082040;28;20039;-62
2022/09/08 03:47:52;;;;;;;1.92;0.77;;;19.80;71.10;;;;;;5083595;28;20044;-61
2022/09/08 03:50:19;;;;;;;1.50;1.00;;;19.80;71.20;;;;;;5083083;28;20021;-61
2022/09/08 03:52:45;;;;;;;4.40;0.90;;;19.80;71.00;;;;;;5071440;28;20036;-61
2022/09/08 03:55:11;;;;;;;1.52;1.20;;;19.80;71.10;;;;;;5084519;28;20041;-62
2022/09/08 03:57:38;;;;;;;1.30;1.20;;;19.80;71.10;;;;;;5082346;28;20209;-62
2022/09/08 04:00:08;;;;;;;1.70;1.17;;;19.80;71.00;;;;;;5085509;28;20032;-62
2022/09/08 04:02:33;;;;;;;2.72;1.60;;;19.70;71.20;;;;;;5078963;28;20513;-62
2022/09/08 04:04:59;;;;;;;2.28;1.52;;;19.70;71.10;;;;;;5088397;28;20036;-61
2022/09/08 04:07:28;;;;;;;2.00;1.48;;;19.70;71.20;;;;;;5078264;28;20035;-61
2022/09/08 04:09:54;;;;;;;3.83;1.08;;;19.70;71.30;;;;;;5077924;28;20028;-62
2022/09/08 04:12:20;;;;;;;2.50;1.67;;;19.70;71.20;;;;;;5082075;28;20043;-62
2022/09/08 04:14:48;;;;;;;3.20;1.88;;;19.70;71.30;;;;;;5072938;28;20494;-62
2022/09/08 04:17:15;;;;;;;2.00;1.58;;;19.70;71.30;;;;;;5078853;28;20044;-63
2022/09/08 04:19:41;;;;;;;2.22;1.80;;;19.60;71.30;;;;;;5083932;28;20417;-63
2022/09/08 04:22:06;;;;;;;5.72;1.58;;;19.60;71.30;;;;;;5078043;28;20052;-62
2022/09/08 04:24:33;;;;;;;2.03;1.50;;;19.60;71.30;;;;;;5073643;28;20032;-61
2022/09/08 04:26:59;;;;;;;2.45;1.33;;;19.60;71.50;;;;;;5086427;28;20125;-61
2022/09/08 04:29:26;;;;;;;3.47;1.40;;;19.50;71.60;;;;;;5099535;27;20029;-63
2022/09/08 04:31:52;;;;;;;2.97;1.33;;;19.50;72.00;;;;;;5094511;28;20035;-62
2022/09/08 04:34:17;;;;;;;1.35;1.05;;;19.50;72.00;;;;;;5106837;28;20056;-62
2022/09/08 04:36:44;;;;;;;2.22;1.20;;;19.50;72.00;;;;;;5079771;28;20040;-62
2022/09/08 04:39:10;;;;;;;1.50;1.00;;;19.50;72.10;;;;;;5075918;28;20062;-62
2022/09/08 04:41:37;;;;;;;4.00;1.00;;;19.50;72.20;;;;;;5080307;28;20042;-62
2022/09/08 04:44:04;;;;;;;1.73;1.10;;;19.50;72.30;;;;;;5073150;28;20029;-61
2022/09/08 04:46:31;;;;;;;2.22;1.00;;;19.50;72.40;;;;;;5079330;28;20088;-62
2022/09/08 04:48:57;;;;;;;2.08;0.98;;;19.50;72.40;;;;;;5080580;28;20097;-63
2022/09/08 04:51:24;;;;;;;2.08;1.23;;;19.50;72.30;;;;;;5075123;28;20617;-63
2022/09/08 04:53:52;;;;;;;1.40;1.00;;;19.50;72.20;;;;;;5079628;28;20048;-61
2022/09/08 04:56:19;;;;;;;1.85;0.98;;;19.50;72.40;;;;;;5095491;28;20090;-63
2022/09/08 04:58:46;;;;;;;2.65;0.90;;;19.50;72.50;;;;;;5088403;28;20024;-63
2022/09/08 05:01:20;;;;;;;1.90;1.00;;;19.50;72.60;;;;;;5086142;28;20033;-61
2022/09/08 05:03:51;;;;;;;1.30;0.90;;;19.40;72.80;;;;;;5072676;28;20039;-62
2022/09/08 05:06:18;;;;;;;1.23;1.13;;;19.50;72.60;;;;;;5075947;28;20051;-61
2022/09/08 05:08:49;;;;;;;1.40;1.13;;;19.50;72.70;;;;;;5082092;28;20021;-62
2022/09/08 05:11:17;;;;;;;1.08;1.05;;;19.50;72.90;;;;;;5078329;28;20036;-62
2022/09/08 05:13:43;;;;;;;3.20;1.30;;;19.50;72.70;;;;;;5081693;28;20033;-63
2022/09/08 05:16:11;;;;;;;2.13;1.42;;;19.50;72.80;;;;;;5071974;28;20044;-62
2022/09/08 05:18:37;;;;;;;1.50;1.30;;;19.50;73.50;;;;;;5081682;28;20028;-62
2022/09/08 05:21:03;;;;;;;2.05;1.23;;;19.50;72.80;;;;;;5079376;28;20031;-61
2022/09/08 05:23:29;;;;;;;2.17;1.23;;;19.40;72.90;;;;;;5076423;28;20025;-61
2022/09/08 05:26:01;;;;;;;2.00;1.40;;;19.50;72.80;;;;;;5092217;28;20020;-61
2022/09/08 05:28:32;;;;;;;1.58;1.10;;;19.50;73.10;;;;;;5074825;28;20025;-61
2022/09/08 05:31:00;;;;;;;1.23;0.98;;;19.50;72.70;;;;;;5086246;28;20072;-62
2022/09/08 05:33:25;;;;;;;2.10;1.38;;;19.50;72.60;;;;;;5094727;28;20029;-62
2022/09/08 05:35:52;;;;;;;1.20;1.05;;;19.50;72.70;;;;;;5088740;28;20037;-61
2022/09/08 05:38:18;;;;;;;2.83;1.40;;;19.50;72.80;;;;;;5073365;28;20032;-62
2022/09/08 05:40:44;;;;;;;2.05;1.17;;;19.60;72.90;;;;;;5096723;28;20466;-62
2022/09/08 05:43:10;;;;;;;1.60;1.27;;;19.60;73.00;;;;;;5073467;28;20028;-62
2022/09/08 05:45:36;;;;;;;4.13;1.05;;;19.60;73.00;;;;;;5085023;28;20048;-61
2022/09/08 05:48:02;;;;;;;2.72;1.30;;;19.60;73.00;;;;;;5072927;28;20411;-61
2022/09/08 05:50:34;;;;;;;2.55;1.30;;;19.60;72.90;;;;;;5090236;28;20036;-62
2022/09/08 05:53:00;;;;;;;3.13;1.40;;;19.70;72.90;;;;;;5075450;28;20063;-62
2022/09/08 05:55:26;;;;;;;1.08;0.80;;;19.70;72.80;;;;;;5079797;28;20037;-61
2022/09/08 05:57:51;;;;;;;2.42;0.90;;;19.70;72.60;;;;;;5084225;28;20505;-61
2022/09/08 06:00:17;;;;;;;0.60;0.60;;;19.70;72.40;;;;;;5083198;28;20174;-62
2022/09/08 06:02:42;;;;;;;1.30;0.65;;;19.80;72.30;;;;;;5072585;28;20029;-62
2022/09/08 06:05:09;;;;;;;1.48;0.70;;;19.70;72.10;;;;;;5085100;28;20039;-61
2022/09/08 06:07:34;;;;;;;2.00;0.80;;;19.70;71.90;;;;;;5077503;28;20128;-61
2022/09/08 06:10:00;;;;;;;1.27;0.80;;;19.70;71.90;;;;;;5075734;28;20484;-62
2022/09/08 06:12:26;;;;;;;1.00;0.82;;;19.70;72.20;;;;;;5074503;28;20055;-62
2022/09/08 06:14:51;;;;;;;3.80;0.80;;;19.70;72.20;;;;;;5085914;28;20037;-61
2022/09/08 06:17:17;;;;;;;1.15;0.60;;;19.70;72.10;;;;;;5076681;28;20036;-62
2022/09/08 06:19:43;;;;;;;1.02;0.60;;;19.70;72.30;;;;;;5090543;28;20028;-62
2022/09/08 06:22:08;;;;;;;0.75;0.60;;;19.70;72.30;;;;;;5087636;28;20047;-61
2022/09/08 06:24:34;;;;;;;2.10;0.93;;;19.70;72.30;;;;;;5078753;28;20084;-62
2022/09/08 06:27:06;;;;;;;1.48;0.93;;;19.70;72.20;;;;;;5080372;28;20028;-61
2022/09/08 06:30:01;;;;;;;3.30;0.90;;;19.70;72.50;;;;;;5078391;28;20057;-62
2022/09/08 06:32:52;;;;;;;1.17;0.80;;;19.70;72.90;;;;;;5087280;28;20047;-62
2022/09/08 06:35:23;;;;;;;1.10;0.73;;;19.70;72.60;;;;;;5071749;28;20045;-62
2022/09/08 06:38:10;;;;;;;1.85;0.80;;;19.70;72.60;;;;;;5079995;28;20035;-63
2022/09/08 06:40:53;;;;;;;0.63;0.63;;;19.70;72.70;;;;;;5070364;28;20024;-61
2022/09/08 06:43:22;;;;;;;2.22;0.57;;;19.70;72.40;;;;;;5069033;28;20029;-62
2022/09/08 06:45:56;;;;;;;0.93;0.63;;;19.70;72.60;;;;;;5101607;28;20033;-62
2022/09/08 06:48:31;;;;;;;1.17;0.60;;;19.70;72.90;;;;;;5106840;28;20016;-62
2022/09/08 06:51:06;;;;;;;1.13;0.60;;;19.70;73.20;;;;;;5009540;28;20025;-61
2022/09/08 06:53:47;;;;;;;1.42;0.77;;;19.60;73.20;;;;;;5104303;28;20064;-62
2022/09/08 06:56:40;;;;;;;0.40;0.40;;;19.60;73.20;;;;;;5076748;28;20067;-61
2022/09/08 06:59:31;;;;;;;4.07;0.95;;;19.70;73.60;;;;;;5083730;28;20054;-62
2022/09/08 07:01:56;;;;;;;2.42;1.02;;;19.70;72.80;;;;;;5039565;28;20052;-60
2022/09/08 07:04:37;;;;;;;5.30;1.60;;;19.70;72.70;;;;;;5042989;28;20042;-61
2022/09/08 07:07:28;;;;;;;1.75;0.80;;;19.70;73.50;;;;;;5045966;28;20404;-61
2022/09/08 07:09:59;;;;;;;3.10;0.77;;;19.70;73.30;;;;;;5042581;28;20052;-61
2022/09/08 07:12:48;;;;;;;1.60;0.80;;;19.70;73.80;;;;;;5045848;28;20141;-61
2022/09/08 07:15:16;;;;;;;1.25;0.63;;;19.80;74.20;;;;;;5030017;28;20049;-61
2022/09/08 07:17:52;;;;;;;1.65;0.60;;;19.90;74.10;;;;;;5036631;28;20085;-62
2022/09/08 07:20:17;;;;;;;2.70;0.80;;;19.90;74.10;;;;;;5039058;28;20037;-61
2022/09/08 07:23:03;;;;;;;3.22;0.85;;;20.00;74.00;;;;;;5031776;28;20040;-61
2022/09/08 07:25:35;;;;;;;0.68;0.68;;;20.10;73.90;;;;;;5038832;28;20075;-62
2022/09/08 07:28:00;;;;;;;2.10;0.60;;;20.20;74.10;;;;;;5028801;28;20716;-61
2022/09/08 07:30:26;;;;;;;1.23;0.60;;;20.20;73.60;;;;;;5042088;28;20060;-60
2022/09/08 07:33:18;;;;;;;4.78;0.60;;;20.30;73.20;;;;;;5037469;28;20100;-61
2022/09/08 07:36:12;;;;;;;0.40;0.40;;;20.30;73.30;;;;;;5035358;28;20056;-61
2022/09/08 07:38:56;;;;;;;2.72;0.50;;;20.40;72.70;;;;;;5044588;28;20136;-61
2022/09/08 07:41:54;;;;;;;1.13;0.50;;;20.40;72.90;;;;;;5077088;28;20037;-61
2022/09/08 07:44:20;;;;;;;1.23;0.55;;;20.40;73.00;;;;;;5084076;28;20123;-62
2022/09/08 07:46:58;;;;;;;0.85;0.40;;;20.40;72.20;;;;;;5084268;28;20032;-60
2022/09/08 07:49:45;;;;;;;0.52;0.40;;;20.40;72.60;;;;;;5076160;28;20025;-60
2022/09/08 07:52:23;;;;;;;2.47;0.40;;;20.40;72.50;;;;;;5079550;28;20080;-60
2022/09/08 07:55:00;;;;;;;0.50;0.50;;;20.40;72.30;;;;;;5078625;28;20045;-60
2022/09/08 07:57:35;;;;;;;1.50;0.60;;;20.40;72.20;;;;;;5072089;28;20050;-61
2022/09/08 08:00:11;;;;;;;1.77;0.73;;;20.40;72.10;;;;;;5091185;28;20044;-62
2022/09/08 08:02:44;;;;;;;1.13;0.57;;;20.40;72.10;;;;;;5088625;28;20043;-61
2022/09/08 08:05:27;;;;;;;1.02;0.60;;;20.40;72.00;;;;;;5089243;28;20054;-61
2022/09/08 08:08:32;;;;;;;1.10;0.60;;;20.40;72.20;;;;;;5076292;28;20496;-63
2022/09/08 08:11:08;;;;;;;0.65;0.60;;;20.40;72.30;;;;;;5086710;28;20037;-62
2022/09/08 08:13:49;;;;;;;1.10;0.43;;;20.30;72.20;;;;;;5101235;28;20031;-62
2022/09/08 08:16:31;;;;;;;0.60;0.52;;;20.30;71.80;;;;;;5086795;28;20520;-61
2022/09/08 08:19:27;;;;;;;2.53;0.50;;;20.20;71.60;;;;;;5087488;28;20074;-62
2022/09/08 08:22:03;;;;;;;1.48;0.60;;;20.20;72.00;;;;;;5083456;28;20024;-61
2022/09/08 08:24:46;;;;;;;1.15;0.60;;;20.20;72.50;;;;;;5085487;28;20115;-61
2022/09/08 08:27:31;;;;;;;4.68;0.60;;;20.20;72.60;;;;;;5095171;28;20028;-61
2022/09/08 08:30:15;;;;;;;1.17;0.40;;;20.20;72.00;;;;;;5078297;28;20062;-59
2022/09/08 08:32:46;;;;;;;1.73;0.50;;;20.20;72.20;;;;;;5075924;28;20097;-61
2022/09/08 08:35:18;;;;;;;0.50;0.43;;;20.20;72.60;;;;;;5079754;28;20037;-61
2022/09/08 08:37:47;;;;;;;2.20;0.40;;;20.30;72.30;;;;;;5085989;28;20104;-61
2022/09/08 08:40:35;;;;;;;0.40;0.35;;;20.40;72.40;;;;;;5088278;28;20024;-60
2022/09/08 08:43:29;;;;;;;0.70;0.40;;;20.40;72.20;;;;;;5083266;28;20078;-60
2022/09/08 08:46:13;;;;;;;0.63;0.40;;;20.50;72.10;;;;;;5069957;28;20024;-60
2022/09/08 08:48:56;;;;;;;0.70;0.45;;;20.60;72.20;;;;;;5076451;28;20028;-61
2022/09/08 08:51:29;;;;;;;0.82;0.50;;;20.60;72.30;;;;;;5077743;28;20032;-62
2022/09/08 08:53:58;;;;;;;1.95;0.63;;;20.70;71.80;;;;;;5082042;28;20052;-61
2022/09/08 08:56:33;;;;;;;1.10;0.47;;;20.70;71.20;;;;;;5080666;28;20044;-61
2022/09/08 08:59:25;;;;;;;0.50;0.47;;;20.70;70.70;;;;;;5079587;28;20029;-60
2022/09/08 09:02:23;;;;;;;1.30;0.52;;;20.80;70.80;;;;;;5082380;28;20467;-60
2022/09/08 09:05:12;;;;;;;1.02;0.60;;;20.70;70.60;;;;;;5080058;28;20040;-61
2022/09/08 09:07:53;;;;;;;1.20;0.50;;;20.70;70.20;;;;;;5082127;28;20056;-60
2022/09/08 09:11:00;;;;;;;1.45;0.55;;;20.80;70.60;;;;;;5076769;28;20039;-61
2022/09/08 09:13:31;;;;;;;0.73;0.40;;;20.80;70.80;;;;;;5071708;28;20040;-61
2022/09/08 09:16:15;;;;;;;2.22;0.50;;;20.90;70.70;;;;;;5085741;28;20044;-60
2022/09/08 09:19:04;;;;;;;0.82;0.40;;;20.90;70.30;;;;;;5095212;28;20040;-60
2022/09/08 09:21:53;;;;;;;0.88;0.40;;;21.00;70.90;;;;;;5084706;28;20119;-61
2022/09/08 09:24:39;;;;;;;2.25;0.40;;;21.10;70.50;;;;;;5080999;28;20104;-60
2022/09/08 09:27:27;;;;;;;1.00;0.40;;;21.20;69.70;;;;;;5074183;28;20029;-61
2022/09/08 09:30:12;;;;;;;0.40;0.40;;;21.30;70.70;;;;;;5069088;28;20480;-62
2022/09/08 09:33:15;;;;;;;1.50;0.50;;;21.50;70.80;;;;;;5084034;28;20040;-60
2022/09/08 09:36:17;;;;;;;0.63;0.47;;;21.60;69.60;;;;;;5082808;28;20044;-61
2022/09/08 09:38:57;;;;;;;1.20;0.50;;;21.80;69.80;;;;;;5082177;28;20112;-61
2022/09/08 09:41:51;;;;;;;0.95;0.40;;;22.00;69.60;;;;;;5086341;28;20056;-61
2022/09/08 09:44:32;;;;;;;1.50;0.40;;;22.10;67.80;;;;;;5088173;28;20028;-61
2022/09/08 09:47:22;;;;;;;0.95;0.30;;;22.20;67.30;;;;;;5080475;28;20051;-61
2022/09/08 09:50:03;;;;;;;0.35;0.35;;;22.20;66.90;;;;;;5084525;28;20028;-61
2022/09/08 09:52:39;;;;;;;0.50;0.40;;;22.20;66.50;;;;;;5083618;28;20040;-62
2022/09/08 09:55:22;;;;;;;0.93;0.50;;;22.20;66.70;;;;;;5072938;28;20588;-60
2022/09/08 09:58:03;;;;;;;0.30;0.30;;;22.20;66.10;;;;;;5075745;28;20028;-61
2022/09/08 10:00:44;;;;;;;0.43;0.30;;;22.20;65.60;;;;;;5088975;28;20103;-60
2022/09/08 10:03:23;;;;;;;1.23;0.40;;;22.10;66.30;;;;;;5080227;28;20032;-62
2022/09/08 10:06:08;;;;;;;1.55;0.40;;;22.00;66.50;;;;;;5078390;28;20024;-62
2022/09/08 10:08:36;;;;;;;;;;;22.00;66.60;;;;;;5071894;28;20043;-61
2022/09/08 10:11:26;;;;;;;0.75;0.38;;;22.10;66.90;;;;;;5104002;28;19915;-61
2022/09/08 10:14:20;;;;;;;9.07;0.40;;;22.10;66.80;;;;;;5065437;28;20091;-61
2022/09/08 10:17:27;;;;;;;0.35;0.35;;;22.10;65.60;;;;;;5082442;28;20089;-60
2022/09/08 10:19:59;;;;;;;1.80;0.73;;;22.10;65.10;;;;;;5077038;28;20119;-60
2022/09/08 10:22:49;;;;;;;4.70;2.22;;;22.10;64.20;;;;;;5085027;28;20564;-61
2022/09/08 10:25:31;;;;;;;1.98;0.75;;;22.10;64.60;;;;;;5072362;28;20025;-62
2022/09/08 10:28:18;;;;;;;0.75;0.43;;;22.00;64.70;;;;;;5071249;28;20059;-61
2022/09/08 10:31:03;;;;;;;2.85;0.60;;;22.00;65.50;;;;;;5097436;28;20080;-60
2022/09/08 10:33:37;;;;;;;2.67;0.63;;;22.10;64.80;;;;;;5101210;28;20043;-61
2022/09/08 10:36:12;;;;;;;1.05;0.60;;;22.10;65.40;;;;;;5070152;28;20052;-60
2022/09/08 10:38:47;;;;;;;0.47;0.40;;;22.20;64.90;;;;;;5085069;28;20029;-62
2022/09/08 10:41:19;;;;;;;1.85;0.60;;;22.20;66.00;;;;;;5065081;28;20032;-60
2022/09/08 10:44:15;;;;;;;0.75;0.55;;;22.20;65.40;;;;;;5083282;28;20115;-61
2022/09/08 10:47:08;;;;;;;1.73;0.70;;;22.20;64.50;;;;;;5084256;28;20025;-62
2022/09/08 10:50:01;;;;;;;1.85;0.65;;;22.20;64.30;;;;;;5093035;28;20024;-59
2022/09/08 10:52:49;;;;;;;1.25;0.55;;;22.10;64.20;;;;;;5079713;28;20059;-60
2022/09/08 10:55:43;;;;;;;2.00;0.70;;;22.10;64.20;;;;;;5064595;28;20618;-60
2022/09/08 10:58:45;;;;;;;1.50;0.52;;;22.00;65.70;;;;;;5077538;28;20028;-61
2022/09/08 11:01:35;;;;;;;0.63;0.60;;;22.10;66.80;;;;;;5067775;28;20059;-60
2022/09/08 11:04:22;;;;;;;0.73;0.60;;;22.20;65.80;;;;;;5077965;28;20032;-60
2022/09/08 11:07:25;;;;;;;1.95;0.70;;;22.50;65.50;;;;;;5065969;28;20041;-61
2022/09/08 11:10:24;;;;;;;0.60;0.60;;;22.70;65.70;;;;;;5070255;28;20043;-60
2022/09/08 11:13:20;;;;;;;2.55;0.75;;;22.90;64.00;;;;;;5075924;28;20028;-60
2022/09/08 11:16:09;;;;;;;6.07;0.80;;;23.00;62.80;;;;;;5066967;28;20472;-61
2022/09/08 11:18:44;;;;;;;1.52;0.60;;;23.10;62.90;;;;;;5083142;28;20032;-62
2022/09/08 11:21:22;;;;;;;1.13;0.60;;;23.10;62.90;;;;;;5068182;28;20028;-62
2022/09/08 11:23:58;;;;;;;1.38;0.60;;;23.20;61.00;;;;;;5085466;28;20048;-62
2022/09/08 11:26:52;;;;;;;2.05;0.60;;;23.30;61.00;;;;;;5087695;28;20032;-62
2022/09/08 11:29:19;;;;;;;1.10;0.50;;;23.40;59.30;;;;;;5068301;28;20070;-62
2022/09/08 11:32:08;;;;;;;3.08;0.65;;;23.50;60.50;;;;;;5104782;28;20060;-61
2022/09/08 11:34:46;;;;;;;5.15;0.73;;;23.60;59.10;;;;;;5070666;28;20052;-61
2022/09/08 11:37:30;;;;;;;1.23;0.60;;;23.60;58.40;;;;;;5106002;28;20080;-61
2022/09/08 11:40:21;;;;;;;1.02;0.63;;;23.60;59.40;;;;;;5108227;28;20044;-62
2022/09/08 11:43:25;;;;;;;1.35;0.68;;;23.70;58.90;;;;;;5074206;28;20059;-61
2022/09/08 11:46:27;;;;;;;1.15;0.57;;;23.80;58.10;;;;;;5106691;28;20073;-61
2022/09/08 11:49:17;;;;;;;1.25;0.60;;;23.90;58.50;;;;;;5074228;28;20024;-61
2022/09/08 11:51:52;;;;;;;1.77;0.68;;;24.00;57.50;;;;;;5088281;28;20038;-60
2022/09/08 11:54:37;;;;;;;0.90;0.40;;;24.20;57.90;;;;;;5076502;28;20041;-62
2022/09/08 11:57:28;;;;;;;1.25;0.60;;;24.30;57.00;;;;;;5071349;28;20032;-61
2022/09/08 12:00:19;;;;;;;3.10;0.73;;;24.40;56.60;;;;;;5087717;28;20020;-62
2022/09/08 12:03:00;;;;;;;2.35;0.60;;;24.50;55.20;;;;;;5074967;28;20063;-61
2022/09/08 12:05:40;;;;;;;3.28;0.75;;;24.50;54.30;;;;;;5081337;28;20024;-63
2022/09/08 12:08:24;;;;;;;0.80;0.60;;;24.50;53.10;;;;;;5079667;28;20044;-60
2022/09/08 12:10:52;;;;;;;1.63;0.50;;;24.50;52.80;;;;;;5086984;28;20024;-61
2022/09/08 12:13:37;;;;;;;2.95;0.60;;;24.50;54.40;;;;;;5092704;28;20032;-61
2022/09/08 12:16:08;;;;;;;;;;;24.50;54.20;;;;;;5081977;28;20052;-62
2022/09/08 12:18:46;;;;;;;4.22;0.55;;;24.60;55.30;;;;;;5080844;28;19916;-60
2022/09/08 12:21:33;;;;;;;3.03;0.65;;;24.60;53.10;;;;;;5086284;28;20052;-61
2022/09/08 12:24:21;;;;;;;0.75;0.40;;;24.70;53.30;;;;;;5082354;28;20024;-60
2022/09/08 12:27:11;;;;;;;1.65;0.52;;;24.70;54.00;;;;;;5092611;28;20031;-61
2022/09/08 12:30:21;;;;;;;0.95;0.40;;;24.90;54.20;;;;;;5081346;28;20240;-61
2022/09/08 12:33:15;;;;;;;2.50;0.70;;;25.00;53.50;;;;;;5053566;28;20037;-62
2022/09/08 12:35:47;;;;;;;0.65;0.50;;;25.20;53.00;;;;;;5036218;28;20042;-61
2022/09/08 12:38:37;;;;;;;0.85;0.50;;;25.30;52.60;;;;;;5061460;28;20443;-60
2022/09/08 12:41:12;;;;;;;1.67;0.65;;;25.40;51.90;;;;;;5050943;28;20040;-60
2022/09/08 12:43:44;;;;;;;1.08;0.40;;;25.50;51.70;;;;;;5047116;28;20069;-59
2022/09/08 12:46:52;;;;;;;2.05;0.47;;;25.60;51.90;;;;;;5055866;28;20071;-61
2022/09/08 12:49:38;;;;;;;4.28;0.80;;;25.60;50.50;;;;;;5051576;28;20029;-61
2022/09/08 12:52:11;;;;;;;3.55;0.60;;;25.60;50.60;;;;;;5058612;28;20029;-61
2022/09/08 12:54:59;;;;;;;1.08;0.60;;;25.60;49.90;;;;;;5055078;28;20044;-60
2022/09/08 12:57:25;;;;;;;3.78;0.60;;;25.60;49.90;;;;;;5054005;28;20051;-59
2022/09/08 13:00:12;;;;;;;1.33;0.70;;;25.50;50.50;;;;;;5061465;28;20096;-59
2022/09/08 13:03:02;;;;;;;0.77;0.50;;;25.50;49.30;;;;;;5067050;28;20024;-61
2022/09/08 13:05:46;;;;;;;1.48;0.60;;;25.40;50.40;;;;;;5075901;28;20038;-61
2022/09/08 13:08:40;;;;;;;2.15;0.60;;;25.30;50.40;;;;;;5079581;28;20107;-60
2022/09/08 13:11:08;;;;;;;1.02;0.55;;;25.30;50.40;;;;;;5075134;28;20071;-60
2022/09/08 13:13:45;;;;;;;3.88;0.68;;;25.30;51.90;;;;;;5082393;28;20032;-61
2022/09/08 13:16:26;;;;;;;1.58;0.60;;;25.30;51.50;;;;;;5067618;28;20063;-60
2022/09/08 13:19:13;;;;;;;0.95;0.60;;;25.30;50.90;;;;;;5082604;28;20028;-60
2022/09/08 13:21:39;;;;;;;1.17;0.65;;;25.40;50.90;;;;;;5082465;28;20467;-61
2022/09/08 13:24:41;;;;;;;4.78;0.60;;;25.40;51.60;;;;;;5082145;28;20036;-61
2022/09/08 13:27:26;;;;;;;1.35;0.60;;;25.50;50.90;;;;;;5073110;28;20033;-61
2022/09/08 13:30:06;;;;;;;;;;;25.60;50.30;;;;;;5069828;28;20072;-60
2022/09/08 13:33:00;;;;;;;0.82;0.40;;;25.70;51.50;;;;;;5091222;28;19916;-62
2022/09/08 13:35:46;;;;;;;1.95;0.70;;;25.90;51.20;;;;;;5085483;28;20048;-60